sensor_id;sensor_type;location;lat;lon;timestamp;P1;durP1;ratioP1;P2;durP2;ratioP2
27303;SDS011;14791;52.392;13.092;2023-05-20T00:00:28;1.42;;;1.42;;
27303;SDS011;14791;52.392;13.092;2023-05-20T00:02:57;1.80;;;1.70;;
27303;SDS011;14791;52.392;13.092;2023-05-20T00:05:26;1.75;;;1.65;;
27303;SDS011;14791;52.392;13.092;2023-05-20T00:07:55;1.77;;;1.77;;
27303;SDS011;14791;52.392;13.092;2023-05-20T00:10:25;1.80;;;1.80;;
27303;SDS011;14791;52.392;13.092;2023-05-20T00:12:55;1.98;;;1.87;;
27303;SDS011;14791;52.392;13.092;2023-05-20T00:15:23;2.07;;;1.87;;
27303;SDS011;14791;52.392;13.092;2023-05-20T00:17:53;1.60;;;1.60;;
27303;SDS011;14791;52.392;13.092;2023-05-20T00:20:22;1.85;;;1.72;;
27303;SDS011;14791;52.392;13.092;2023-05-20T00:22:51;1.75;;;1.75;;
27303;SDS011;14791;52.392;13.092;2023-05-20T00:25:20;2.20;;;2.10;;
27303;SDS011;14791;52.392;13.092;2023-05-20T00:27:49;1.83;;;1.83;;
27303;SDS011;14791;52.392;13.092;2023-05-20T00:30:18;1.60;;;1.60;;
27303;SDS011;14791;52.392;13.092;2023-05-20T00:32:47;1.60;;;1.60;;
27303;SDS011;14791;52.392;13.092;2023-05-20T00:35:16;2.17;;;2.07;;
27303;SDS011;14791;52.392;13.092;2023-05-20T00:37:45;1.80;;;1.70;;
27303;SDS011;14791;52.392;13.092;2023-05-20T00:40:14;2.00;;;2.00;;
27303;SDS011;14791;52.392;13.092;2023-05-20T00:42:43;1.67;;;1.67;;
27303;SDS011;14791;52.392;13.092;2023-05-20T00:45:12;1.70;;;1.70;;
27303;SDS011;14791;52.392;13.092;2023-05-20T00:47:41;1.85;;;1.75;;
27303;SDS011;14791;52.392;13.092;2023-05-20T00:50:10;1.90;;;1.80;;
27303;SDS011;14791;52.392;13.092;2023-05-20T00:52:39;1.87;;;1.77;;
27303;SDS011;14791;52.392;13.092;2023-05-20T00:55:10;1.80;;;1.80;;
27303;SDS011;14791;52.392;13.092;2023-05-20T00:57:39;1.97;;;1.97;;
27303;SDS011;14791;52.392;13.092;2023-05-20T01:00:09;1.92;;;1.82;;
27303;SDS011;14791;52.392;13.092;2023-05-20T01:02:39;1.82;;;1.72;;
27303;SDS011;14791;52.392;13.092;2023-05-20T01:05:08;2.30;;;2.20;;
27303;SDS011;14791;52.392;13.092;2023-05-20T01:07:37;1.87;;;1.77;;
27303;SDS011;14791;52.392;13.092;2023-05-20T01:10:07;1.93;;;1.90;;
27303;SDS011;14791;52.392;13.092;2023-05-20T01:12:41;1.73;;;1.73;;
27303;SDS011;14791;52.392;13.092;2023-05-20T01:15:11;1.90;;;1.80;;
27303;SDS011;14791;52.392;13.092;2023-05-20T01:17:42;1.87;;;1.83;;
27303;SDS011;14791;52.392;13.092;2023-05-20T01:20:14;2.10;;;2.00;;
27303;SDS011;14791;52.392;13.092;2023-05-20T01:23:04;2.10;;;2.00;;
27303;SDS011;14791;52.392;13.092;2023-05-20T01:25:22;1.93;;;1.83;;
27303;SDS011;14791;52.392;13.092;2023-05-20T01:27:53;2.58;;;1.47;;
27303;SDS011;14791;52.392;13.092;2023-05-20T01:30:29;1.97;;;1.87;;
27303;SDS011;14791;52.392;13.092;2023-05-20T01:33:01;1.77;;;1.77;;
27303;SDS011;14791;52.392;13.092;2023-05-20T01:35:29;1.67;;;1.67;;
27303;SDS011;14791;52.392;13.092;2023-05-20T01:37:58;1.77;;;1.70;;
27303;SDS011;14791;52.392;13.092;2023-05-20T01:40:28;1.80;;;1.80;;
27303;SDS011;14791;52.392;13.092;2023-05-20T01:42:58;2.00;;;1.90;;
27303;SDS011;14791;52.392;13.092;2023-05-20T01:45:28;1.80;;;1.80;;
27303;SDS011;14791;52.392;13.092;2023-05-20T01:47:59;1.97;;;1.87;;
27303;SDS011;14791;52.392;13.092;2023-05-20T01:50:29;1.67;;;1.67;;
27303;SDS011;14791;52.392;13.092;2023-05-20T01:52:58;1.90;;;1.80;;
27303;SDS011;14791;52.392;13.092;2023-05-20T01:55:27;1.90;;;1.80;;
27303;SDS011;14791;52.392;13.092;2023-05-20T01:57:56;1.70;;;1.60;;
27303;SDS011;14791;52.392;13.092;2023-05-20T02:00:25;1.70;;;1.70;;
27303;SDS011;14791;52.392;13.092;2023-05-20T02:02:54;2.03;;;2.03;;
27303;SDS011;14791;52.392;13.092;2023-05-20T02:05:23;2.70;;;1.90;;
27303;SDS011;14791;52.392;13.092;2023-05-20T02:07:52;1.77;;;1.77;;
27303;SDS011;14791;52.392;13.092;2023-05-20T02:10:22;2.00;;;1.90;;
27303;SDS011;14791;52.392;13.092;2023-05-20T02:12:51;2.03;;;2.00;;
27303;SDS011;14791;52.392;13.092;2023-05-20T02:15:20;2.30;;;2.10;;
27303;SDS011;14791;52.392;13.092;2023-05-20T02:17:49;1.67;;;1.63;;
27303;SDS011;14791;52.392;13.092;2023-05-20T02:20:17;1.80;;;1.70;;
27303;SDS011;14791;52.392;13.092;2023-05-20T02:22:46;1.97;;;1.87;;
27303;SDS011;14791;52.392;13.092;2023-05-20T02:25:15;2.00;;;1.90;;
27303;SDS011;14791;52.392;13.092;2023-05-20T02:27:44;1.80;;;1.80;;
27303;SDS011;14791;52.392;13.092;2023-05-20T02:30:13;2.47;;;1.90;;
27303;SDS011;14791;52.392;13.092;2023-05-20T02:32:43;2.00;;;1.90;;
27303;SDS011;14791;52.392;13.092;2023-05-20T02:35:12;2.10;;;2.10;;
27303;SDS011;14791;52.392;13.092;2023-05-20T02:37:42;2.03;;;1.93;;
27303;SDS011;14791;52.392;13.092;2023-05-20T02:40:12;2.07;;;1.97;;
27303;SDS011;14791;52.392;13.092;2023-05-20T02:42:41;2.30;;;2.00;;
27303;SDS011;14791;52.392;13.092;2023-05-20T02:45:10;1.93;;;1.93;;
27303;SDS011;14791;52.392;13.092;2023-05-20T02:47:38;2.10;;;2.00;;
27303;SDS011;14791;52.392;13.092;2023-05-20T02:50:07;2.00;;;2.00;;
27303;SDS011;14791;52.392;13.092;2023-05-20T02:52:37;2.27;;;1.93;;
27303;SDS011;14791;52.392;13.092;2023-05-20T02:55:08;1.50;;;1.50;;
27303;SDS011;14791;52.392;13.092;2023-05-20T02:57:37;2.10;;;2.00;;
27303;SDS011;14791;52.392;13.092;2023-05-20T03:00:08;2.03;;;1.97;;
27303;SDS011;14791;52.392;13.092;2023-05-20T03:02:37;2.23;;;2.13;;
27303;SDS011;14791;52.392;13.092;2023-05-20T03:05:07;2.00;;;2.00;;
27303;SDS011;14791;52.392;13.092;2023-05-20T03:07:36;2.00;;;1.77;;
27303;SDS011;14791;52.392;13.092;2023-05-20T03:10:06;1.85;;;1.85;;
27303;SDS011;14791;52.392;13.092;2023-05-20T03:12:37;1.70;;;1.70;;
27303;SDS011;14791;52.392;13.092;2023-05-20T03:15:08;1.50;;;1.50;;
27303;SDS011;14791;52.392;13.092;2023-05-20T03:17:38;1.85;;;1.82;;
27303;SDS011;14791;52.392;13.092;2023-05-20T03:20:08;2.08;;;1.98;;
27303;SDS011;14791;52.392;13.092;2023-05-20T03:22:40;2.27;;;2.20;;
27303;SDS011;14791;52.392;13.092;2023-05-20T03:25:09;2.27;;;2.10;;
27303;SDS011;14791;52.392;13.092;2023-05-20T03:27:38;2.40;;;2.30;;
27303;SDS011;14791;52.392;13.092;2023-05-20T03:30:09;2.00;;;1.90;;
27303;SDS011;14791;52.392;13.092;2023-05-20T03:32:39;1.87;;;1.87;;
27303;SDS011;14791;52.392;13.092;2023-05-20T03:35:09;2.02;;;1.87;;
27303;SDS011;14791;52.392;13.092;2023-05-20T03:37:38;2.00;;;1.90;;
27303;SDS011;14791;52.392;13.092;2023-05-20T03:40:07;2.00;;;1.97;;
27303;SDS011;14791;52.392;13.092;2023-05-20T03:42:39;2.00;;;1.98;;
27303;SDS011;14791;52.392;13.092;2023-05-20T03:45:08;2.10;;;2.00;;
27303;SDS011;14791;52.392;13.092;2023-05-20T03:47:39;2.27;;;2.17;;
27303;SDS011;14791;52.392;13.092;2023-05-20T03:50:08;2.60;;;2.50;;
27303;SDS011;14791;52.392;13.092;2023-05-20T03:52:38;2.23;;;2.13;;
27303;SDS011;14791;52.392;13.092;2023-05-20T03:55:07;2.20;;;2.10;;
27303;SDS011;14791;52.392;13.092;2023-05-20T03:57:36;2.30;;;2.20;;
27303;SDS011;14791;52.392;13.092;2023-05-20T04:00:06;2.47;;;2.37;;
27303;SDS011;14791;52.392;13.092;2023-05-20T04:02:44;3.00;;;2.13;;
27303;SDS011;14791;52.392;13.092;2023-05-20T04:05:15;2.40;;;2.17;;
27303;SDS011;14791;52.392;13.092;2023-05-20T04:07:46;2.63;;;2.53;;
27303;SDS011;14791;52.392;13.092;2023-05-20T04:10:17;2.60;;;2.50;;
27303;SDS011;14791;52.392;13.092;2023-05-20T04:12:47;3.17;;;2.92;;
27303;SDS011;14791;52.392;13.092;2023-05-20T04:15:16;2.70;;;2.60;;
27303;SDS011;14791;52.392;13.092;2023-05-20T04:17:50;2.47;;;2.37;;
27303;SDS011;14791;52.392;13.092;2023-05-20T04:20:20;2.52;;;2.42;;
27303;SDS011;14791;52.392;13.092;2023-05-20T04:22:51;2.65;;;2.55;;
27303;SDS011;14791;52.392;13.092;2023-05-20T04:25:21;2.27;;;2.27;;
27303;SDS011;14791;52.392;13.092;2023-05-20T04:27:50;2.47;;;2.30;;
27303;SDS011;14791;52.392;13.092;2023-05-20T04:30:20;2.27;;;2.17;;
27303;SDS011;14791;52.392;13.092;2023-05-20T04:32:49;2.67;;;2.57;;
27303;SDS011;14791;52.392;13.092;2023-05-20T04:35:19;5.75;;;2.90;;
27303;SDS011;14791;52.392;13.092;2023-05-20T04:37:50;2.70;;;2.60;;
27303;SDS011;14791;52.392;13.092;2023-05-20T04:40:20;2.08;;;2.08;;
27303;SDS011;14791;52.392;13.092;2023-05-20T04:42:49;2.83;;;2.65;;
27303;SDS011;14791;52.392;13.092;2023-05-20T04:45:20;2.67;;;2.57;;
27303;SDS011;14791;52.392;13.092;2023-05-20T04:47:50;2.77;;;2.58;;
27303;SDS011;14791;52.392;13.092;2023-05-20T04:50:19;2.85;;;2.65;;
27303;SDS011;14791;52.392;13.092;2023-05-20T04:52:48;2.30;;;2.20;;
27303;SDS011;14791;52.392;13.092;2023-05-20T04:55:17;2.30;;;2.30;;
27303;SDS011;14791;52.392;13.092;2023-05-20T04:57:47;2.72;;;2.62;;
27303;SDS011;14791;52.392;13.092;2023-05-20T05:00:17;2.45;;;2.35;;
27303;SDS011;14791;52.392;13.092;2023-05-20T05:02:46;2.55;;;2.35;;
27303;SDS011;14791;52.392;13.092;2023-05-20T05:05:15;2.83;;;2.63;;
27303;SDS011;14791;52.392;13.092;2023-05-20T05:07:44;2.30;;;2.20;;
27303;SDS011;14791;52.392;13.092;2023-05-20T05:10:13;2.55;;;2.45;;
27303;SDS011;14791;52.392;13.092;2023-05-20T05:12:42;2.75;;;2.65;;
27303;SDS011;14791;52.392;13.092;2023-05-20T05:15:11;2.90;;;2.80;;
27303;SDS011;14791;52.392;13.092;2023-05-20T05:17:41;2.62;;;2.52;;
27303;SDS011;14791;52.392;13.092;2023-05-20T05:20:11;2.85;;;2.65;;
27303;SDS011;14791;52.392;13.092;2023-05-20T05:22:40;2.77;;;2.67;;
27303;SDS011;14791;52.392;13.092;2023-05-20T05:25:10;2.75;;;2.65;;
27303;SDS011;14791;52.392;13.092;2023-05-20T05:27:39;2.72;;;2.52;;
27303;SDS011;14791;52.392;13.092;2023-05-20T05:30:08;2.67;;;2.58;;
27303;SDS011;14791;52.392;13.092;2023-05-20T05:32:38;2.80;;;2.70;;
27303;SDS011;14791;52.392;13.092;2023-05-20T05:35:07;3.62;;;3.42;;
27303;SDS011;14791;52.392;13.092;2023-05-20T05:37:37;2.98;;;2.87;;
27303;SDS011;14791;52.392;13.092;2023-05-20T05:40:07;2.58;;;2.47;;
27303;SDS011;14791;52.392;13.092;2023-05-20T05:42:37;2.60;;;2.50;;
27303;SDS011;14791;52.392;13.092;2023-05-20T05:45:07;2.60;;;2.50;;
27303;SDS011;14791;52.392;13.092;2023-05-20T05:47:36;2.33;;;2.22;;
27303;SDS011;14791;52.392;13.092;2023-05-20T05:50:05;3.10;;;2.90;;
27303;SDS011;14791;52.392;13.092;2023-05-20T05:52:36;2.55;;;2.45;;
27303;SDS011;14791;52.392;13.092;2023-05-20T05:55:07;2.70;;;2.60;;
27303;SDS011;14791;52.392;13.092;2023-05-20T05:57:37;2.45;;;2.35;;
27303;SDS011;14791;52.392;13.092;2023-05-20T06:00:07;2.50;;;2.40;;
27303;SDS011;14791;52.392;13.092;2023-05-20T06:02:46;2.90;;;2.80;;
27303;SDS011;14791;52.392;13.092;2023-05-20T06:05:17;2.98;;;2.83;;
27303;SDS011;14791;52.392;13.092;2023-05-20T06:07:46;3.52;;;3.33;;
27303;SDS011;14791;52.392;13.092;2023-05-20T06:10:15;2.87;;;2.77;;
27303;SDS011;14791;52.392;13.092;2023-05-20T06:12:44;2.92;;;2.75;;
27303;SDS011;14791;52.392;13.092;2023-05-20T06:15:13;3.02;;;2.92;;
27303;SDS011;14791;52.392;13.092;2023-05-20T06:17:42;2.90;;;2.70;;
27303;SDS011;14791;52.392;13.092;2023-05-20T06:20:12;2.70;;;2.60;;
27303;SDS011;14791;52.392;13.092;2023-05-20T06:22:41;4.40;;;3.22;;
27303;SDS011;14791;52.392;13.092;2023-05-20T06:25:11;3.10;;;2.90;;
27303;SDS011;14791;52.392;13.092;2023-05-20T06:27:41;3.00;;;2.90;;
27303;SDS011;14791;52.392;13.092;2023-05-20T06:30:11;3.10;;;3.00;;
27303;SDS011;14791;52.392;13.092;2023-05-20T06:32:41;3.27;;;3.00;;
27303;SDS011;14791;52.392;13.092;2023-05-20T06:35:10;2.95;;;2.85;;
27303;SDS011;14791;52.392;13.092;2023-05-20T06:37:39;3.50;;;3.30;;
27303;SDS011;14791;52.392;13.092;2023-05-20T06:40:09;3.12;;;2.92;;
27303;SDS011;14791;52.392;13.092;2023-05-20T06:42:40;2.90;;;2.75;;
27303;SDS011;14791;52.392;13.092;2023-05-20T06:45:10;3.02;;;2.83;;
27303;SDS011;14791;52.392;13.092;2023-05-20T06:47:44;3.00;;;2.90;;
27303;SDS011;14791;52.392;13.092;2023-05-20T06:50:14;2.95;;;2.75;;
27303;SDS011;14791;52.392;13.092;2023-05-20T06:52:44;2.65;;;2.55;;
27303;SDS011;14791;52.392;13.092;2023-05-20T06:55:13;3.08;;;2.98;;
27303;SDS011;14791;52.392;13.092;2023-05-20T06:57:42;2.92;;;2.83;;
27303;SDS011;14791;52.392;13.092;2023-05-20T07:00:13;3.00;;;2.90;;
27303;SDS011;14791;52.392;13.092;2023-05-20T07:02:42;2.98;;;2.87;;
27303;SDS011;14791;52.392;13.092;2023-05-20T07:05:13;3.02;;;2.80;;
27303;SDS011;14791;52.392;13.092;2023-05-20T07:07:42;2.87;;;2.77;;
27303;SDS011;14791;52.392;13.092;2023-05-20T07:10:11;3.08;;;2.87;;
27303;SDS011;14791;52.392;13.092;2023-05-20T07:12:41;3.12;;;3.02;;
27303;SDS011;14791;52.392;13.092;2023-05-20T07:15:10;2.80;;;2.60;;
27303;SDS011;14791;52.392;13.092;2023-05-20T07:17:40;3.62;;;3.37;;
27303;SDS011;14791;52.392;13.092;2023-05-20T07:20:09;3.42;;;3.20;;
27303;SDS011;14791;52.392;13.092;2023-05-20T07:22:38;3.12;;;3.02;;
27303;SDS011;14791;52.392;13.092;2023-05-20T07:25:24;3.10;;;3.00;;
27303;SDS011;14791;52.392;13.092;2023-05-20T07:27:53;3.25;;;3.15;;
27303;SDS011;14791;52.392;13.092;2023-05-20T07:30:21;3.20;;;3.10;;
27303;SDS011;14791;52.392;13.092;2023-05-20T07:32:52;3.12;;;3.02;;
27303;SDS011;14791;52.392;13.092;2023-05-20T07:35:22;3.52;;;3.22;;
27303;SDS011;14791;52.392;13.092;2023-05-20T07:37:51;3.12;;;3.02;;
27303;SDS011;14791;52.392;13.092;2023-05-20T07:40:21;3.42;;;3.33;;
27303;SDS011;14791;52.392;13.092;2023-05-20T07:42:50;3.12;;;3.02;;
27303;SDS011;14791;52.392;13.092;2023-05-20T07:45:19;3.05;;;2.95;;
27303;SDS011;14791;52.392;13.092;2023-05-20T07:47:49;3.02;;;2.92;;
27303;SDS011;14791;52.392;13.092;2023-05-20T07:50:18;3.05;;;2.95;;
27303;SDS011;14791;52.392;13.092;2023-05-20T07:52:47;3.10;;;2.90;;
27303;SDS011;14791;52.392;13.092;2023-05-20T07:55:16;3.08;;;2.98;;
27303;SDS011;14791;52.392;13.092;2023-05-20T07:57:45;3.17;;;3.08;;
27303;SDS011;14791;52.392;13.092;2023-05-20T08:00:15;2.95;;;2.85;;
27303;SDS011;14791;52.392;13.092;2023-05-20T08:02:43;3.58;;;3.37;;
27303;SDS011;14791;52.392;13.092;2023-05-20T08:05:13;3.10;;;3.00;;
27303;SDS011;14791;52.392;13.092;2023-05-20T08:07:43;3.27;;;3.12;;
27303;SDS011;14791;52.392;13.092;2023-05-20T08:10:13;3.05;;;2.95;;
27303;SDS011;14791;52.392;13.092;2023-05-20T08:12:42;3.00;;;2.90;;
27303;SDS011;14791;52.392;13.092;2023-05-20T08:15:12;3.15;;;2.95;;
27303;SDS011;14791;52.392;13.092;2023-05-20T08:17:41;3.60;;;3.40;;
27303;SDS011;14791;52.392;13.092;2023-05-20T08:20:10;3.58;;;3.27;;
27303;SDS011;14791;52.392;13.092;2023-05-20T08:22:40;3.22;;;3.10;;
27303;SDS011;14791;52.392;13.092;2023-05-20T08:25:09;3.27;;;3.17;;
27303;SDS011;14791;52.392;13.092;2023-05-20T08:27:38;3.10;;;3.00;;
27303;SDS011;14791;52.392;13.092;2023-05-20T08:30:08;2.90;;;2.80;;
27303;SDS011;14791;52.392;13.092;2023-05-20T08:32:38;2.80;;;2.70;;
27303;SDS011;14791;52.392;13.092;2023-05-20T08:35:07;2.92;;;2.83;;
27303;SDS011;14791;52.392;13.092;2023-05-20T08:37:36;2.80;;;2.70;;
27303;SDS011;14791;52.392;13.092;2023-05-20T08:40:05;3.02;;;2.92;;
27303;SDS011;14791;52.392;13.092;2023-05-20T08:42:39;2.60;;;2.50;;
27303;SDS011;14791;52.392;13.092;2023-05-20T08:45:11;2.83;;;2.62;;
27303;SDS011;14791;52.392;13.092;2023-05-20T08:47:42;2.33;;;2.22;;
27303;SDS011;14791;52.392;13.092;2023-05-20T08:50:12;3.80;;;2.60;;
27303;SDS011;14791;52.392;13.092;2023-05-20T08:52:43;2.85;;;2.65;;
27303;SDS011;14791;52.392;13.092;2023-05-20T08:55:14;2.70;;;2.60;;
27303;SDS011;14791;52.392;13.092;2023-05-20T08:57:46;2.47;;;2.42;;
27303;SDS011;14791;52.392;13.092;2023-05-20T09:00:21;2.65;;;2.55;;
27303;SDS011;14791;52.392;13.092;2023-05-20T09:02:52;2.95;;;2.85;;
27303;SDS011;14791;52.392;13.092;2023-05-20T09:05:21;2.60;;;2.50;;
27303;SDS011;14791;52.392;13.092;2023-05-20T09:07:50;2.70;;;2.60;;
27303;SDS011;14791;52.392;13.092;2023-05-20T09:10:20;2.72;;;2.62;;
27303;SDS011;14791;52.392;13.092;2023-05-20T09:12:49;2.55;;;2.47;;
27303;SDS011;14791;52.392;13.092;2023-05-20T09:15:18;2.92;;;2.70;;
27303;SDS011;14791;52.392;13.092;2023-05-20T09:17:48;2.80;;;2.70;;
27303;SDS011;14791;52.392;13.092;2023-05-20T09:20:17;2.72;;;2.62;;
27303;SDS011;14791;52.392;13.092;2023-05-20T09:22:57;3.10;;;3.00;;
27303;SDS011;14791;52.392;13.092;2023-05-20T09:25:20;2.95;;;2.80;;
27303;SDS011;14791;52.392;13.092;2023-05-20T09:27:49;2.98;;;2.87;;
27303;SDS011;14791;52.392;13.092;2023-05-20T09:30:18;2.95;;;2.85;;
27303;SDS011;14791;52.392;13.092;2023-05-20T09:35:25;3.20;;;3.10;;
27303;SDS011;14791;52.392;13.092;2023-05-20T09:37:55;2.60;;;2.50;;
27303;SDS011;14791;52.392;13.092;2023-05-20T09:40:26;3.12;;;3.02;;
27303;SDS011;14791;52.392;13.092;2023-05-20T09:42:56;3.08;;;2.98;;
27303;SDS011;14791;52.392;13.092;2023-05-20T09:45:34;2.75;;;2.67;;
27303;SDS011;14791;52.392;13.092;2023-05-20T09:48:04;3.10;;;3.00;;
27303;SDS011;14791;52.392;13.092;2023-05-20T09:50:34;3.47;;;3.37;;
27303;SDS011;14791;52.392;13.092;2023-05-20T09:53:04;3.30;;;3.10;;
27303;SDS011;14791;52.392;13.092;2023-05-20T09:55:34;3.25;;;3.15;;
27303;SDS011;14791;52.392;13.092;2023-05-20T09:58:04;3.42;;;3.22;;
27303;SDS011;14791;52.392;13.092;2023-05-20T10:00:33;3.27;;;3.17;;
27303;SDS011;14791;52.392;13.092;2023-05-20T10:03:02;3.70;;;3.60;;
27303;SDS011;14791;52.392;13.092;2023-05-20T10:05:34;3.60;;;3.40;;
27303;SDS011;14791;52.392;13.092;2023-05-20T10:10:49;3.87;;;3.58;;
27303;SDS011;14791;52.392;13.092;2023-05-20T10:19:17;3.20;;;3.10;;
27303;SDS011;14791;52.392;13.092;2023-05-20T10:21:44;3.30;;;3.20;;
27303;SDS011;14791;52.392;13.092;2023-05-20T10:24:32;3.37;;;3.27;;
27303;SDS011;14791;52.392;13.092;2023-05-20T10:27:07;3.45;;;3.35;;
27303;SDS011;14791;52.392;13.092;2023-05-20T10:29:53;3.55;;;3.45;;
27303;SDS011;14791;52.392;13.092;2023-05-20T10:32:24;3.20;;;3.10;;
27303;SDS011;14791;52.392;13.092;2023-05-20T10:34:59;3.62;;;3.52;;
27303;SDS011;14791;52.392;13.092;2023-05-20T10:37:31;3.65;;;3.45;;
27303;SDS011;14791;52.392;13.092;2023-05-20T10:40:04;3.37;;;3.27;;
27303;SDS011;14791;52.392;13.092;2023-05-20T10:42:33;3.90;;;3.80;;
27303;SDS011;14791;52.392;13.092;2023-05-20T10:45:02;3.37;;;3.27;;
27303;SDS011;14791;52.392;13.092;2023-05-20T10:47:33;4.80;;;4.60;;
27303;SDS011;14791;52.392;13.092;2023-05-20T10:50:03;4.65;;;4.45;;
27303;SDS011;14791;52.392;13.092;2023-05-20T10:52:35;3.83;;;3.72;;
27303;SDS011;14791;52.392;13.092;2023-05-20T10:55:04;3.92;;;3.77;;
27303;SDS011;14791;52.392;13.092;2023-05-20T10:57:34;3.83;;;3.72;;
27303;SDS011;14791;52.392;13.092;2023-05-20T11:00:03;3.85;;;3.70;;
27303;SDS011;14791;52.392;13.092;2023-05-20T11:02:35;4.22;;;4.08;;
27303;SDS011;14791;52.392;13.092;2023-05-20T11:05:04;3.75;;;3.65;;
27303;SDS011;14791;52.392;13.092;2023-05-20T11:07:35;3.75;;;3.65;;
27303;SDS011;14791;52.392;13.092;2023-05-20T11:10:06;3.65;;;3.55;;
27303;SDS011;14791;52.392;13.092;2023-05-20T11:12:36;3.90;;;3.80;;
27303;SDS011;14791;52.392;13.092;2023-05-20T11:15:06;4.55;;;4.35;;
27303;SDS011;14791;52.392;13.092;2023-05-20T11:17:36;3.67;;;3.58;;
27303;SDS011;14791;52.392;13.092;2023-05-20T11:20:06;3.92;;;3.83;;
27303;SDS011;14791;52.392;13.092;2023-05-20T11:22:36;3.40;;;3.30;;
27303;SDS011;14791;52.392;13.092;2023-05-20T11:25:08;3.92;;;3.72;;
27303;SDS011;14791;52.392;13.092;2023-05-20T11:27:40;3.72;;;3.52;;
27303;SDS011;14791;52.392;13.092;2023-05-20T11:30:15;3.98;;;3.85;;
27303;SDS011;14791;52.392;13.092;2023-05-20T11:32:43;3.85;;;3.75;;
27303;SDS011;14791;52.392;13.092;2023-05-20T11:35:23;3.90;;;3.80;;
27303;SDS011;14791;52.392;13.092;2023-05-20T11:37:54;3.80;;;3.65;;
27303;SDS011;14791;52.392;13.092;2023-05-20T11:40:24;3.62;;;3.52;;
27303;SDS011;14791;52.392;13.092;2023-05-20T11:42:54;3.75;;;3.65;;
27303;SDS011;14791;52.392;13.092;2023-05-20T11:45:24;4.10;;;3.98;;
27303;SDS011;14791;52.392;13.092;2023-05-20T11:48:00;4.80;;;4.60;;
27303;SDS011;14791;52.392;13.092;2023-05-20T11:50:38;4.85;;;4.62;;
27303;SDS011;14791;52.392;13.092;2023-05-20T11:53:08;3.92;;;3.72;;
27303;SDS011;14791;52.392;13.092;2023-05-20T11:55:46;4.00;;;3.90;;
27303;SDS011;14791;52.392;13.092;2023-05-20T12:00:51;3.98;;;3.83;;
27303;SDS011;14791;52.392;13.092;2023-05-20T12:03:20;3.90;;;3.80;;
27303;SDS011;14791;52.392;13.092;2023-05-20T12:05:50;3.98;;;3.87;;
27303;SDS011;14791;52.392;13.092;2023-05-20T12:08:19;3.55;;;3.45;;
27303;SDS011;14791;52.392;13.092;2023-05-20T12:10:48;4.42;;;4.28;;
27303;SDS011;14791;52.392;13.092;2023-05-20T12:13:17;3.42;;;3.33;;
27303;SDS011;14791;52.392;13.092;2023-05-20T12:15:46;3.85;;;3.75;;
27303;SDS011;14791;52.392;13.092;2023-05-20T12:18:15;3.95;;;3.75;;
27303;SDS011;14791;52.392;13.092;2023-05-20T12:20:44;3.75;;;3.62;;
27303;SDS011;14791;52.392;13.092;2023-05-20T12:23:13;4.47;;;4.17;;
27303;SDS011;14791;52.392;13.092;2023-05-20T12:25:42;3.95;;;3.72;;
27303;SDS011;14791;52.392;13.092;2023-05-20T12:28:13;3.92;;;3.83;;
27303;SDS011;14791;52.392;13.092;2023-05-20T12:30:43;4.03;;;3.92;;
27303;SDS011;14791;52.392;13.092;2023-05-20T12:33:12;3.80;;;3.60;;
27303;SDS011;14791;52.392;13.092;2023-05-20T12:35:41;3.77;;;3.67;;
27303;SDS011;14791;52.392;13.092;2023-05-20T12:38:12;4.20;;;4.08;;
27303;SDS011;14791;52.392;13.092;2023-05-20T12:40:41;4.05;;;3.58;;
27303;SDS011;14791;52.392;13.092;2023-05-20T12:43:10;3.72;;;3.62;;
27303;SDS011;14791;52.392;13.092;2023-05-20T12:45:39;4.12;;;4.03;;
27303;SDS011;14791;52.392;13.092;2023-05-20T12:48:07;4.20;;;4.00;;
27303;SDS011;14791;52.392;13.092;2023-05-20T12:50:36;3.35;;;3.25;;
27303;SDS011;14791;52.392;13.092;2023-05-20T12:53:05;4.00;;;3.90;;
27303;SDS011;14791;52.392;13.092;2023-05-20T12:55:34;3.70;;;3.60;;
27303;SDS011;14791;52.392;13.092;2023-05-20T12:58:05;4.00;;;3.80;;
27303;SDS011;14791;52.392;13.092;2023-05-20T13:00:36;3.62;;;3.42;;
27303;SDS011;14791;52.392;13.092;2023-05-20T13:03:05;4.00;;;3.85;;
27303;SDS011;14791;52.392;13.092;2023-05-20T13:05:34;4.10;;;4.00;;
27303;SDS011;14791;52.392;13.092;2023-05-20T13:08:03;4.00;;;3.90;;
27303;SDS011;14791;52.392;13.092;2023-05-20T13:10:32;4.25;;;3.90;;
27303;SDS011;14791;52.392;13.092;2023-05-20T13:13:01;3.77;;;3.67;;
27303;SDS011;14791;52.392;13.092;2023-05-20T13:15:30;3.90;;;3.80;;
27303;SDS011;14791;52.392;13.092;2023-05-20T13:17:59;3.98;;;3.87;;
27303;SDS011;14791;52.392;13.092;2023-05-20T13:20:29;3.50;;;3.40;;
27303;SDS011;14791;52.392;13.092;2023-05-20T13:22:58;4.03;;;3.92;;
27303;SDS011;14791;52.392;13.092;2023-05-20T13:25:27;3.70;;;3.60;;
27303;SDS011;14791;52.392;13.092;2023-05-20T13:27:57;4.05;;;3.95;;
27303;SDS011;14791;52.392;13.092;2023-05-20T13:30:26;4.30;;;4.20;;
27303;SDS011;14791;52.392;13.092;2023-05-20T13:32:55;4.12;;;4.00;;
27303;SDS011;14791;52.392;13.092;2023-05-20T13:35:25;4.20;;;4.10;;
27303;SDS011;14791;52.392;13.092;2023-05-20T13:37:54;3.90;;;3.80;;
27303;SDS011;14791;52.392;13.092;2023-05-20T13:40:23;4.30;;;4.20;;
27303;SDS011;14791;52.392;13.092;2023-05-20T13:42:52;4.42;;;4.33;;
27303;SDS011;14791;52.392;13.092;2023-05-20T13:45:21;4.45;;;4.25;;
27303;SDS011;14791;52.392;13.092;2023-05-20T13:47:50;3.80;;;3.70;;
27303;SDS011;14791;52.392;13.092;2023-05-20T13:50:19;3.75;;;3.65;;
27303;SDS011;14791;52.392;13.092;2023-05-20T13:52:48;3.92;;;3.83;;
27303;SDS011;14791;52.392;13.092;2023-05-20T13:55:17;4.15;;;3.95;;
27303;SDS011;14791;52.392;13.092;2023-05-20T13:57:46;4.22;;;4.12;;
27303;SDS011;14791;52.392;13.092;2023-05-20T14:00:15;3.60;;;3.50;;
27303;SDS011;14791;52.392;13.092;2023-05-20T14:02:44;3.50;;;3.40;;
27303;SDS011;14791;52.392;13.092;2023-05-20T14:05:13;3.65;;;3.55;;
27303;SDS011;14791;52.392;13.092;2023-05-20T14:07:42;3.90;;;3.75;;
27303;SDS011;14791;52.392;13.092;2023-05-20T14:10:11;3.85;;;3.75;;
27303;SDS011;14791;52.392;13.092;2023-05-20T14:12:40;4.55;;;4.35;;
27303;SDS011;14791;52.392;13.092;2023-05-20T14:15:11;3.87;;;3.77;;
27303;SDS011;14791;52.392;13.092;2023-05-20T14:17:40;3.90;;;3.65;;
27303;SDS011;14791;52.392;13.092;2023-05-20T14:20:09;3.47;;;3.37;;
27303;SDS011;14791;52.392;13.092;2023-05-20T14:22:38;3.52;;;3.42;;
27303;SDS011;14791;52.392;13.092;2023-05-20T14:25:07;4.12;;;4.03;;
27303;SDS011;14791;52.392;13.092;2023-05-20T14:27:36;4.00;;;3.83;;
27303;SDS011;14791;52.392;13.092;2023-05-20T14:30:06;3.25;;;3.15;;
27303;SDS011;14791;52.392;13.092;2023-05-20T14:32:35;3.95;;;3.85;;
27303;SDS011;14791;52.392;13.092;2023-05-20T14:35:04;3.58;;;3.47;;
27303;SDS011;14791;52.392;13.092;2023-05-20T14:37:34;3.58;;;3.47;;
27303;SDS011;14791;52.392;13.092;2023-05-20T14:40:03;3.77;;;3.67;;
27303;SDS011;14791;52.392;13.092;2023-05-20T14:42:33;3.72;;;3.62;;
27303;SDS011;14791;52.392;13.092;2023-05-20T14:45:02;3.37;;;3.27;;
27303;SDS011;14791;52.392;13.092;2023-05-20T14:47:32;3.60;;;3.50;;
27303;SDS011;14791;52.392;13.092;2023-05-20T14:50:01;3.50;;;3.40;;
27303;SDS011;14791;52.392;13.092;2023-05-20T14:52:30;3.62;;;3.52;;
27303;SDS011;14791;52.392;13.092;2023-05-20T14:54:58;3.50;;;3.40;;
27303;SDS011;14791;52.392;13.092;2023-05-20T14:57:27;3.83;;;3.72;;
27303;SDS011;14791;52.392;13.092;2023-05-20T14:59:56;4.00;;;3.90;;
27303;SDS011;14791;52.392;13.092;2023-05-20T15:02:25;3.77;;;3.67;;